sensor_id;sensor_type;location;lat;lon;timestamp;P1;durP1;ratioP1;P2;durP2;ratioP2
39264;SDS011;42646;51.910;7.724;2023-08-20T00:00:44;9.45;;;6.82;;
39264;SDS011;42646;51.910;7.724;2023-08-20T00:03:13;9.80;;;7.15;;
39264;SDS011;42646;51.910;7.724;2023-08-20T00:05:41;9.80;;;7.15;;
39264;SDS011;42646;51.910;7.724;2023-08-20T00:08:10;9.73;;;7.20;;
39264;SDS011;42646;51.910;7.724;2023-08-20T00:10:39;11.43;;;7.45;;
39264;SDS011;42646;51.910;7.724;2023-08-20T00:13:07;10.27;;;6.82;;
39264;SDS011;42646;51.910;7.724;2023-08-20T00:15:35;9.55;;;7.45;;
39264;SDS011;42646;51.910;7.724;2023-08-20T00:18:04;10.38;;;6.97;;
39264;SDS011;42646;51.910;7.724;2023-08-20T00:20:32;9.15;;;6.80;;
39264;SDS011;42646;51.910;7.724;2023-08-20T00:23:01;10.55;;;6.85;;
39264;SDS011;42646;51.910;7.724;2023-08-20T00:25:30;9.60;;;6.75;;
39264;SDS011;42646;51.910;7.724;2023-08-20T00:28:00;8.52;;;6.28;;
39264;SDS011;42646;51.910;7.724;2023-08-20T00:30:29;9.38;;;7.13;;
39264;SDS011;42646;51.910;7.724;2023-08-20T00:32:59;8.90;;;6.05;;
39264;SDS011;42646;51.910;7.724;2023-08-20T00:35:26;8.23;;;6.40;;
39264;SDS011;42646;51.910;7.724;2023-08-20T00:37:56;9.32;;;6.20;;
39264;SDS011;42646;51.910;7.724;2023-08-20T00:40:23;8.18;;;6.22;;
39264;SDS011;42646;51.910;7.724;2023-08-20T00:43:00;9.85;;;6.35;;
39264;SDS011;42646;51.910;7.724;2023-08-20T00:45:30;8.52;;;5.63;;
39264;SDS011;42646;51.910;7.724;2023-08-20T00:47:58;8.43;;;5.18;;
39264;SDS011;42646;51.910;7.724;2023-08-20T00:50:28;7.78;;;5.25;;
39264;SDS011;42646;51.910;7.724;2023-08-20T00:52:58;7.63;;;5.28;;
39264;SDS011;42646;51.910;7.724;2023-08-20T00:55:26;7.07;;;5.38;;
39264;SDS011;42646;51.910;7.724;2023-08-20T00:57:54;9.73;;;5.03;;
39264;SDS011;42646;51.910;7.724;2023-08-20T01:00:24;7.03;;;5.40;;
39264;SDS011;42646;51.910;7.724;2023-08-20T01:02:53;8.98;;;4.88;;
39264;SDS011;42646;51.910;7.724;2023-08-20T01:05:21;7.90;;;4.97;;
39264;SDS011;42646;51.910;7.724;2023-08-20T01:07:56;8.57;;;5.15;;
39264;SDS011;42646;51.910;7.724;2023-08-20T01:10:32;7.43;;;5.03;;
39264;SDS011;42646;51.910;7.724;2023-08-20T01:13:05;6.70;;;4.78;;
39264;SDS011;42646;51.910;7.724;2023-08-20T01:15:37;7.68;;;4.95;;
39264;SDS011;42646;51.910;7.724;2023-08-20T01:18:06;6.20;;;4.30;;
39264;SDS011;42646;51.910;7.724;2023-08-20T01:20:35;6.25;;;4.32;;
39264;SDS011;42646;51.910;7.724;2023-08-20T01:23:13;7.68;;;4.95;;
39264;SDS011;42646;51.910;7.724;2023-08-20T01:26:25;7.63;;;5.05;;
39264;SDS011;42646;51.910;7.724;2023-08-20T01:29:16;7.60;;;4.80;;
39264;SDS011;42646;51.910;7.724;2023-08-20T01:32:09;8.05;;;4.72;;
39264;SDS011;42646;51.910;7.724;2023-08-20T01:34:39;7.95;;;4.93;;
39264;SDS011;42646;51.910;7.724;2023-08-20T01:37:06;7.00;;;5.00;;
39264;SDS011;42646;51.910;7.724;2023-08-20T01:39:34;8.25;;;5.07;;
39264;SDS011;42646;51.910;7.724;2023-08-20T01:42:04;10.45;;;4.60;;
39264;SDS011;42646;51.910;7.724;2023-08-20T01:44:34;8.80;;;5.18;;
39264;SDS011;42646;51.910;7.724;2023-08-20T01:47:02;8.60;;;5.18;;
39264;SDS011;42646;51.910;7.724;2023-08-20T01:49:30;7.47;;;4.63;;
39264;SDS011;42646;51.910;7.724;2023-08-20T01:51:58;6.82;;;4.65;;
39264;SDS011;42646;51.910;7.724;2023-08-20T01:54:28;7.63;;;4.55;;
39264;SDS011;42646;51.910;7.724;2023-08-20T01:56:56;6.75;;;4.15;;
39264;SDS011;42646;51.910;7.724;2023-08-20T01:59:24;7.05;;;4.53;;
39264;SDS011;42646;51.910;7.724;2023-08-20T02:01:55;6.93;;;4.50;;
39264;SDS011;42646;51.910;7.724;2023-08-20T02:04:23;8.07;;;4.60;;
39264;SDS011;42646;51.910;7.724;2023-08-20T02:06:51;5.32;;;4.07;;
39264;SDS011;42646;51.910;7.724;2023-08-20T02:09:19;6.75;;;4.53;;
39264;SDS011;42646;51.910;7.724;2023-08-20T02:11:50;6.60;;;4.50;;
39264;SDS011;42646;51.910;7.724;2023-08-20T02:14:17;6.95;;;4.18;;
39264;SDS011;42646;51.910;7.724;2023-08-20T02:16:56;7.85;;;4.45;;
39264;SDS011;42646;51.910;7.724;2023-08-20T02:19:24;8.05;;;4.25;;
39264;SDS011;42646;51.910;7.724;2023-08-20T02:21:56;6.88;;;4.68;;
39264;SDS011;42646;51.910;7.724;2023-08-20T02:24:25;6.20;;;5.10;;
39264;SDS011;42646;51.910;7.724;2023-08-20T02:26:53;8.98;;;5.22;;
39264;SDS011;42646;51.910;7.724;2023-08-20T02:29:21;6.43;;;4.60;;
39264;SDS011;42646;51.910;7.724;2023-08-20T02:31:49;7.22;;;4.43;;
39264;SDS011;42646;51.910;7.724;2023-08-20T02:34:19;6.75;;;4.60;;
39264;SDS011;42646;51.910;7.724;2023-08-20T02:36:47;7.78;;;4.95;;
39264;SDS011;42646;51.910;7.724;2023-08-20T02:39:15;8.65;;;4.95;;
39264;SDS011;42646;51.910;7.724;2023-08-20T02:41:44;6.97;;;5.13;;
39264;SDS011;42646;51.910;7.724;2023-08-20T02:44:13;7.78;;;5.15;;
39264;SDS011;42646;51.910;7.724;2023-08-20T02:46:40;7.22;;;4.80;;
39264;SDS011;42646;51.910;7.724;2023-08-20T02:49:11;6.97;;;4.88;;
39264;SDS011;42646;51.910;7.724;2023-08-20T02:51:43;6.32;;;4.65;;
39264;SDS011;42646;51.910;7.724;2023-08-20T02:54:15;7.18;;;5.03;;
39264;SDS011;42646;51.910;7.724;2023-08-20T02:56:42;7.18;;;5.07;;
39264;SDS011;42646;51.910;7.724;2023-08-20T02:59:10;6.05;;;4.90;;
39264;SDS011;42646;51.910;7.724;2023-08-20T03:01:39;7.10;;;4.65;;
39264;SDS011;42646;51.910;7.724;2023-08-20T03:04:07;7.20;;;4.80;;
39264;SDS011;42646;51.910;7.724;2023-08-20T03:06:38;7.97;;;4.97;;
39264;SDS011;42646;51.910;7.724;2023-08-20T03:09:07;8.07;;;4.90;;
39264;SDS011;42646;51.910;7.724;2023-08-20T03:11:36;7.43;;;4.40;;
39264;SDS011;42646;51.910;7.724;2023-08-20T03:14:03;6.57;;;4.30;;
39264;SDS011;42646;51.910;7.724;2023-08-20T03:16:31;7.28;;;4.63;;
39264;SDS011;42646;51.910;7.724;2023-08-20T03:19:00;8.13;;;4.97;;
39264;SDS011;42646;51.910;7.724;2023-08-20T03:21:28;8.25;;;4.72;;
39264;SDS011;42646;51.910;7.724;2023-08-20T03:23:56;7.93;;;5.45;;
39264;SDS011;42646;51.910;7.724;2023-08-20T03:26:26;8.07;;;5.40;;
39264;SDS011;42646;51.910;7.724;2023-08-20T03:28:54;7.38;;;5.57;;
39264;SDS011;42646;51.910;7.724;2023-08-20T03:31:21;7.55;;;5.20;;
39264;SDS011;42646;51.910;7.724;2023-08-20T03:33:49;8.10;;;5.60;;
39264;SDS011;42646;51.910;7.724;2023-08-20T03:36:17;8.63;;;6.07;;
39264;SDS011;42646;51.910;7.724;2023-08-20T03:38:45;8.82;;;6.00;;
39264;SDS011;42646;51.910;7.724;2023-08-20T03:41:13;7.25;;;5.65;;
39264;SDS011;42646;51.910;7.724;2023-08-20T03:43:43;9.93;;;6.10;;
39264;SDS011;42646;51.910;7.724;2023-08-20T03:46:11;8.63;;;5.40;;
39264;SDS011;42646;51.910;7.724;2023-08-20T03:48:41;7.50;;;5.40;;
39264;SDS011;42646;51.910;7.724;2023-08-20T03:51:09;8.07;;;5.10;;
39264;SDS011;42646;51.910;7.724;2023-08-20T03:53:37;8.63;;;4.40;;
39264;SDS011;42646;51.910;7.724;2023-08-20T03:56:04;7.95;;;5.35;;
39264;SDS011;42646;51.910;7.724;2023-08-20T03:58:32;8.27;;;5.63;;
39264;SDS011;42646;51.910;7.724;2023-08-20T04:01:02;7.88;;;4.93;;
39264;SDS011;42646;51.910;7.724;2023-08-20T04:03:30;8.70;;;5.43;;
39264;SDS011;42646;51.910;7.724;2023-08-20T04:08:52;8.23;;;4.90;;
39264;SDS011;42646;51.910;7.724;2023-08-20T04:11:19;8.98;;;4.88;;
39264;SDS011;42646;51.910;7.724;2023-08-20T04:13:48;6.85;;;5.15;;
39264;SDS011;42646;51.910;7.724;2023-08-20T04:16:17;7.55;;;4.70;;
39264;SDS011;42646;51.910;7.724;2023-08-20T04:18:47;6.93;;;4.78;;
39264;SDS011;42646;51.910;7.724;2023-08-20T04:21:18;10.52;;;4.88;;
39264;SDS011;42646;51.910;7.724;2023-08-20T04:23:46;8.23;;;4.60;;
39264;SDS011;42646;51.910;7.724;2023-08-20T04:26:15;6.32;;;4.40;;
39264;SDS011;42646;51.910;7.724;2023-08-20T04:28:42;7.72;;;5.15;;
39264;SDS011;42646;51.910;7.724;2023-08-20T04:31:12;7.60;;;5.28;;
39264;SDS011;42646;51.910;7.724;2023-08-20T04:34:08;8.93;;;5.30;;
39264;SDS011;42646;51.910;7.724;2023-08-20T04:36:45;6.78;;;4.90;;
39264;SDS011;42646;51.910;7.724;2023-08-20T04:39:13;8.48;;;5.78;;
39264;SDS011;42646;51.910;7.724;2023-08-20T04:41:46;10.13;;;6.40;;
39264;SDS011;42646;51.910;7.724;2023-08-20T04:44:16;10.05;;;6.13;;
39264;SDS011;42646;51.910;7.724;2023-08-20T04:46:45;8.43;;;6.18;;
39264;SDS011;42646;51.910;7.724;2023-08-20T04:49:14;11.52;;;6.50;;
39264;SDS011;42646;51.910;7.724;2023-08-20T04:52:06;8.25;;;6.20;;
39264;SDS011;42646;51.910;7.724;2023-08-20T04:54:35;13.57;;;7.38;;
39264;SDS011;42646;51.910;7.724;2023-08-20T04:57:02;9.07;;;6.70;;
39264;SDS011;42646;51.910;7.724;2023-08-20T04:59:31;9.93;;;7.00;;
39264;SDS011;42646;51.910;7.724;2023-08-20T05:02:22;9.05;;;6.45;;
39264;SDS011;42646;51.910;7.724;2023-08-20T05:04:55;11.30;;;6.60;;
39264;SDS011;42646;51.910;7.724;2023-08-20T05:07:24;8.27;;;5.72;;
39264;SDS011;42646;51.910;7.724;2023-08-20T05:09:53;9.48;;;6.63;;
39264;SDS011;42646;51.910;7.724;2023-08-20T05:12:22;8.38;;;6.40;;
39264;SDS011;42646;51.910;7.724;2023-08-20T05:14:49;9.48;;;6.20;;
39264;SDS011;42646;51.910;7.724;2023-08-20T05:17:17;10.27;;;6.15;;
39264;SDS011;42646;51.910;7.724;2023-08-20T05:19:46;8.90;;;7.03;;
39264;SDS011;42646;51.910;7.724;2023-08-20T05:22:15;9.43;;;6.60;;
39264;SDS011;42646;51.910;7.724;2023-08-20T05:24:43;9.52;;;6.80;;
39264;SDS011;42646;51.910;7.724;2023-08-20T05:27:12;10.50;;;7.13;;
39264;SDS011;42646;51.910;7.724;2023-08-20T05:29:44;10.27;;;6.70;;
39264;SDS011;42646;51.910;7.724;2023-08-20T05:32:13;9.60;;;7.15;;
39264;SDS011;42646;51.910;7.724;2023-08-20T05:34:43;9.90;;;6.88;;
39264;SDS011;42646;51.910;7.724;2023-08-20T05:37:11;10.27;;;7.15;;
39264;SDS011;42646;51.910;7.724;2023-08-20T05:39:42;10.20;;;7.50;;
39264;SDS011;42646;51.910;7.724;2023-08-20T05:42:12;11.85;;;7.85;;
39264;SDS011;42646;51.910;7.724;2023-08-20T05:44:46;11.38;;;7.60;;
39264;SDS011;42646;51.910;7.724;2023-08-20T05:47:19;9.38;;;7.50;;
39264;SDS011;42646;51.910;7.724;2023-08-20T05:49:47;10.38;;;7.38;;
39264;SDS011;42646;51.910;7.724;2023-08-20T05:52:16;12.65;;;7.10;;
39264;SDS011;42646;51.910;7.724;2023-08-20T05:54:45;12.82;;;7.95;;
39264;SDS011;42646;51.910;7.724;2023-08-20T05:57:13;9.77;;;7.43;;
39264;SDS011;42646;51.910;7.724;2023-08-20T05:59:45;9.98;;;7.63;;
39264;SDS011;42646;51.910;7.724;2023-08-20T06:02:15;12.50;;;8.27;;
39264;SDS011;42646;51.910;7.724;2023-08-20T06:04:44;10.93;;;7.97;;
39264;SDS011;42646;51.910;7.724;2023-08-20T06:07:11;11.57;;;7.88;;
39264;SDS011;42646;51.910;7.724;2023-08-20T06:09:39;9.90;;;8.02;;
39264;SDS011;42646;51.910;7.724;2023-08-20T06:12:08;12.13;;;8.00;;
39264;SDS011;42646;51.910;7.724;2023-08-20T06:17:06;11.73;;;8.23;;
39264;SDS011;42646;51.910;7.724;2023-08-20T06:19:34;10.93;;;8.10;;
39264;SDS011;42646;51.910;7.724;2023-08-20T06:22:06;11.27;;;8.23;;
39264;SDS011;42646;51.910;7.724;2023-08-20T06:24:33;11.63;;;8.82;;
39264;SDS011;42646;51.910;7.724;2023-08-20T06:27:02;11.30;;;8.30;;
39264;SDS011;42646;51.910;7.724;2023-08-20T06:29:31;11.82;;;8.85;;
39264;SDS011;42646;51.910;7.724;2023-08-20T06:31:59;10.43;;;8.00;;
39264;SDS011;42646;51.910;7.724;2023-08-20T06:34:27;11.77;;;8.82;;
39264;SDS011;42646;51.910;7.724;2023-08-20T06:36:55;12.07;;;9.32;;
39264;SDS011;42646;51.910;7.724;2023-08-20T06:39:22;12.23;;;9.55;;
39264;SDS011;42646;51.910;7.724;2023-08-20T06:41:50;12.00;;;9.20;;
39264;SDS011;42646;51.910;7.724;2023-08-20T06:44:19;12.38;;;9.23;;
39264;SDS011;42646;51.910;7.724;2023-08-20T06:46:48;11.38;;;9.00;;
39264;SDS011;42646;51.910;7.724;2023-08-20T06:49:16;13.60;;;10.10;;
39264;SDS011;42646;51.910;7.724;2023-08-20T06:51:44;11.63;;;9.15;;
39264;SDS011;42646;51.910;7.724;2023-08-20T06:54:13;13.10;;;9.52;;
39264;SDS011;42646;51.910;7.724;2023-08-20T06:56:42;15.38;;;10.35;;
39264;SDS011;42646;51.910;7.724;2023-08-20T06:59:11;13.85;;;9.27;;
39264;SDS011;42646;51.910;7.724;2023-08-20T07:01:39;12.02;;;9.48;;
39264;SDS011;42646;51.910;7.724;2023-08-20T07:04:08;12.45;;;10.00;;
39264;SDS011;42646;51.910;7.724;2023-08-20T07:06:37;12.30;;;9.73;;
39264;SDS011;42646;51.910;7.724;2023-08-20T07:09:05;10.88;;;8.95;;
39264;SDS011;42646;51.910;7.724;2023-08-20T07:11:34;15.25;;;10.88;;
39264;SDS011;42646;51.910;7.724;2023-08-20T07:14:02;12.48;;;9.95;;
39264;SDS011;42646;51.910;7.724;2023-08-20T07:16:32;12.70;;;9.65;;
39264;SDS011;42646;51.910;7.724;2023-08-20T07:18:59;14.50;;;10.60;;
39264;SDS011;42646;51.910;7.724;2023-08-20T07:21:29;12.00;;;9.65;;
39264;SDS011;42646;51.910;7.724;2023-08-20T07:23:57;11.68;;;9.48;;
39264;SDS011;42646;51.910;7.724;2023-08-20T07:26:24;11.98;;;8.93;;
39264;SDS011;42646;51.910;7.724;2023-08-20T07:28:55;11.63;;;8.88;;
39264;SDS011;42646;51.910;7.724;2023-08-20T07:31:26;11.50;;;8.98;;
39264;SDS011;42646;51.910;7.724;2023-08-20T07:33:56;13.05;;;9.55;;
39264;SDS011;42646;51.910;7.724;2023-08-20T07:36:32;10.82;;;8.10;;
39264;SDS011;42646;51.910;7.724;2023-08-20T07:39:01;10.48;;;8.60;;
39264;SDS011;42646;51.910;7.724;2023-08-20T07:41:30;10.52;;;8.20;;
39264;SDS011;42646;51.910;7.724;2023-08-20T07:43:58;11.60;;;8.82;;
39264;SDS011;42646;51.910;7.724;2023-08-20T07:46:25;11.70;;;9.00;;
39264;SDS011;42646;51.910;7.724;2023-08-20T07:48:54;13.00;;;9.88;;
39264;SDS011;42646;51.910;7.724;2023-08-20T07:51:22;12.02;;;9.23;;
39264;SDS011;42646;51.910;7.724;2023-08-20T07:53:51;10.48;;;8.32;;
39264;SDS011;42646;51.910;7.724;2023-08-20T07:56:20;10.98;;;8.98;;
39264;SDS011;42646;51.910;7.724;2023-08-20T07:58:49;11.52;;;8.80;;
39264;SDS011;42646;51.910;7.724;2023-08-20T08:01:18;11.38;;;9.50;;
39264;SDS011;42646;51.910;7.724;2023-08-20T08:03:48;10.65;;;8.63;;
39264;SDS011;42646;51.910;7.724;2023-08-20T08:06:16;11.10;;;9.20;;
39264;SDS011;42646;51.910;7.724;2023-08-20T08:08:45;11.93;;;9.90;;
39264;SDS011;42646;51.910;7.724;2023-08-20T08:11:14;11.52;;;9.60;;
39264;SDS011;42646;51.910;7.724;2023-08-20T08:13:47;14.07;;;11.23;;
39264;SDS011;42646;51.910;7.724;2023-08-20T08:16:15;13.68;;;11.15;;
39264;SDS011;42646;51.910;7.724;2023-08-20T08:18:43;16.67;;;11.95;;
39264;SDS011;42646;51.910;7.724;2023-08-20T08:21:11;14.85;;;11.00;;
39264;SDS011;42646;51.910;7.724;2023-08-20T08:23:42;11.70;;;9.73;;
39264;SDS011;42646;51.910;7.724;2023-08-20T08:26:10;12.95;;;10.20;;
39264;SDS011;42646;51.910;7.724;2023-08-20T08:28:39;15.55;;;11.30;;
39264;SDS011;42646;51.910;7.724;2023-08-20T08:31:07;15.10;;;12.60;;
39264;SDS011;42646;51.910;7.724;2023-08-20T08:33:34;14.57;;;12.30;;
39264;SDS011;42646;51.910;7.724;2023-08-20T08:36:07;14.30;;;12.00;;
39264;SDS011;42646;51.910;7.724;2023-08-20T08:38:34;15.75;;;12.68;;
39264;SDS011;42646;51.910;7.724;2023-08-20T08:41:02;19.67;;;15.80;;
39264;SDS011;42646;51.910;7.724;2023-08-20T08:43:32;14.88;;;11.65;;
39264;SDS011;42646;51.910;7.724;2023-08-20T08:46:02;12.95;;;10.68;;
39264;SDS011;42646;51.910;7.724;2023-08-20T08:48:34;12.52;;;10.48;;
39264;SDS011;42646;51.910;7.724;2023-08-20T08:51:03;12.18;;;10.02;;
39264;SDS011;42646;51.910;7.724;2023-08-20T08:53:31;12.40;;;9.93;;
39264;SDS011;42646;51.910;7.724;2023-08-20T08:56:00;12.25;;;10.25;;
39264;SDS011;42646;51.910;7.724;2023-08-20T08:58:29;10.82;;;9.20;;
39264;SDS011;42646;51.910;7.724;2023-08-20T09:00:56;10.57;;;8.75;;
39264;SDS011;42646;51.910;7.724;2023-08-20T09:03:26;12.25;;;10.05;;
39264;SDS011;42646;51.910;7.724;2023-08-20T09:05:55;11.70;;;9.43;;
39264;SDS011;42646;51.910;7.724;2023-08-20T09:08:25;12.05;;;10.65;;
39264;SDS011;42646;51.910;7.724;2023-08-20T09:10:57;11.60;;;9.52;;
39264;SDS011;42646;51.910;7.724;2023-08-20T09:13:33;13.10;;;10.45;;
39264;SDS011;42646;51.910;7.724;2023-08-20T09:16:05;11.63;;;9.95;;
39264;SDS011;42646;51.910;7.724;2023-08-20T09:18:39;13.10;;;10.85;;
39264;SDS011;42646;51.910;7.724;2023-08-20T09:21:07;14.73;;;11.95;;
39264;SDS011;42646;51.910;7.724;2023-08-20T09:23:36;14.43;;;11.75;;
39264;SDS011;42646;51.910;7.724;2023-08-20T09:26:05;14.43;;;11.75;;
39264;SDS011;42646;51.910;7.724;2023-08-20T09:28:40;11.18;;;9.75;;
39264;SDS011;42646;51.910;7.724;2023-08-20T09:31:08;13.20;;;10.23;;
39264;SDS011;42646;51.910;7.724;2023-08-20T09:33:38;12.23;;;9.30;;
39264;SDS011;42646;51.910;7.724;2023-08-20T09:36:16;9.18;;;7.93;;
39264;SDS011;42646;51.910;7.724;2023-08-20T09:38:44;9.98;;;7.93;;
39264;SDS011;42646;51.910;7.724;2023-08-20T09:43:44;8.55;;;7.38;;
39264;SDS011;42646;51.910;7.724;2023-08-20T09:46:13;8.88;;;7.97;;
39264;SDS011;42646;51.910;7.724;2023-08-20T09:48:45;9.17;;;7.50;;
39264;SDS011;42646;51.910;7.724;2023-08-20T09:51:15;11.15;;;8.32;;
39264;SDS011;42646;51.910;7.724;2023-08-20T09:53:48;13.07;;;9.68;;
39264;SDS011;42646;51.910;7.724;2023-08-20T09:56:28;10.43;;;8.43;;
39264;SDS011;42646;51.910;7.724;2023-08-20T09:58:58;9.88;;;7.60;;
39264;SDS011;42646;51.910;7.724;2023-08-20T10:01:26;9.38;;;7.50;;
39264;SDS011;42646;51.910;7.724;2023-08-20T10:03:56;10.52;;;8.13;;
39264;SDS011;42646;51.910;7.724;2023-08-20T10:06:24;9.32;;;7.88;;
39264;SDS011;42646;51.910;7.724;2023-08-20T10:08:52;10.35;;;8.35;;
39264;SDS011;42646;51.910;7.724;2023-08-20T10:11:21;9.48;;;8.27;;
39264;SDS011;42646;51.910;7.724;2023-08-20T10:13:49;10.82;;;9.20;;
39264;SDS011;42646;51.910;7.724;2023-08-20T10:16:17;12.60;;;8.95;;
39264;SDS011;42646;51.910;7.724;2023-08-20T10:18:48;10.27;;;8.70;;
39264;SDS011;42646;51.910;7.724;2023-08-20T10:21:17;9.18;;;7.72;;
39264;SDS011;42646;51.910;7.724;2023-08-20T10:23:48;8.25;;;7.18;;
39264;SDS011;42646;51.910;7.724;2023-08-20T10:26:15;10.37;;;8.43;;
39264;SDS011;42646;51.910;7.724;2023-08-20T10:28:51;10.80;;;8.02;;
39264;SDS011;42646;51.910;7.724;2023-08-20T10:31:46;8.90;;;7.90;;
39264;SDS011;42646;51.910;7.724;2023-08-20T10:37:10;9.13;;;7.13;;
39264;SDS011;42646;51.910;7.724;2023-08-20T10:39:41;8.38;;;7.07;;
39264;SDS011;42646;51.910;7.724;2023-08-20T10:42:09;6.85;;;5.80;;
39264;SDS011;42646;51.910;7.724;2023-08-20T10:44:58;7.47;;;5.90;;
39264;SDS011;42646;51.910;7.724;2023-08-20T10:47:35;7.13;;;6.03;;
39264;SDS011;42646;51.910;7.724;2023-08-20T10:50:05;6.43;;;5.63;;
39264;SDS011;42646;51.910;7.724;2023-08-20T10:52:40;7.28;;;5.80;;
39264;SDS011;42646;51.910;7.724;2023-08-20T10:55:08;7.38;;;6.22;;
39264;SDS011;42646;51.910;7.724;2023-08-20T10:57:36;7.45;;;6.10;;
39264;SDS011;42646;51.910;7.724;2023-08-20T11:00:04;6.97;;;6.05;;
39264;SDS011;42646;51.910;7.724;2023-08-20T11:02:39;7.38;;;5.45;;
39264;SDS011;42646;51.910;7.724;2023-08-20T11:05:15;7.85;;;6.00;;
39264;SDS011;42646;51.910;7.724;2023-08-20T11:07:46;7.82;;;5.50;;
39264;SDS011;42646;51.910;7.724;2023-08-20T11:10:17;7.10;;;5.20;;
39264;SDS011;42646;51.910;7.724;2023-08-20T11:12:45;6.30;;;5.35;;
39264;SDS011;42646;51.910;7.724;2023-08-20T11:15:15;7.47;;;5.40;;
39264;SDS011;42646;51.910;7.724;2023-08-20T11:17:44;6.90;;;5.20;;
39264;SDS011;42646;51.910;7.724;2023-08-20T11:20:17;6.57;;;5.25;;
39264;SDS011;42646;51.910;7.724;2023-08-20T11:22:45;6.35;;;5.30;;
39264;SDS011;42646;51.910;7.724;2023-08-20T11:25:16;6.45;;;5.50;;
39264;SDS011;42646;51.910;7.724;2023-08-20T11:27:43;6.78;;;5.15;;
39264;SDS011;42646;51.910;7.724;2023-08-20T11:30:12;5.35;;;4.55;;
39264;SDS011;42646;51.910;7.724;2023-08-20T11:32:40;6.57;;;4.97;;
39264;SDS011;42646;51.910;7.724;2023-08-20T11:35:11;7.15;;;4.93;;
39264;SDS011;42646;51.910;7.724;2023-08-20T11:37:40;6.75;;;4.95;;
39264;SDS011;42646;51.910;7.724;2023-08-20T11:40:08;6.20;;;4.97;;
39264;SDS011;42646;51.910;7.724;2023-08-20T11:42:39;6.75;;;4.93;;
39264;SDS011;42646;51.910;7.724;2023-08-20T11:45:09;5.72;;;4.18;;
39264;SDS011;42646;51.910;7.724;2023-08-20T11:48:02;6.88;;;4.25;;
39264;SDS011;42646;51.910;7.724;2023-08-20T11:50:31;6.35;;;4.30;;
39264;SDS011;42646;51.910;7.724;2023-08-20T11:52:59;6.90;;;4.45;;
39264;SDS011;42646;51.910;7.724;2023-08-20T11:55:29;5.47;;;4.38;;
39264;SDS011;42646;51.910;7.724;2023-08-20T11:57:57;5.97;;;4.30;;
39264;SDS011;42646;51.910;7.724;2023-08-20T12:00:26;5.90;;;4.30;;
39264;SDS011;42646;51.910;7.724;2023-08-20T12:03:20;5.82;;;4.50;;
39264;SDS011;42646;51.910;7.724;2023-08-20T12:05:49;5.82;;;4.00;;
39264;SDS011;42646;51.910;7.724;2023-08-20T12:08:17;6.13;;;4.50;;
39264;SDS011;42646;51.910;7.724;2023-08-20T12:10:45;6.43;;;4.65;;
39264;SDS011;42646;51.910;7.724;2023-08-20T12:13:13;6.03;;;4.60;;
39264;SDS011;42646;51.910;7.724;2023-08-20T12:15:42;6.75;;;4.65;;
39264;SDS011;42646;51.910;7.724;2023-08-20T12:18:10;6.15;;;5.10;;
39264;SDS011;42646;51.910;7.724;2023-08-20T12:20:37;5.80;;;4.93;;
39264;SDS011;42646;51.910;7.724;2023-08-20T12:26:01;7.47;;;5.53;;
39264;SDS011;42646;51.910;7.724;2023-08-20T12:28:53;6.78;;;5.00;;
39264;SDS011;42646;51.910;7.724;2023-08-20T12:31:25;6.68;;;5.07;;
39264;SDS011;42646;51.910;7.724;2023-08-20T12:36:20;7.07;;;5.50;;
39264;SDS011;42646;51.910;7.724;2023-08-20T12:38:49;6.80;;;4.95;;
39264;SDS011;42646;51.910;7.724;2023-08-20T12:41:18;6.78;;;5.50;;
39264;SDS011;42646;51.910;7.724;2023-08-20T12:43:46;7.13;;;5.32;;
39264;SDS011;42646;51.910;7.724;2023-08-20T12:46:14;7.20;;;5.53;;
39264;SDS011;42646;51.910;7.724;2023-08-20T12:48:42;7.35;;;5.85;;
39264;SDS011;42646;51.910;7.724;2023-08-20T12:51:09;8.95;;;6.35;;
39264;SDS011;42646;51.910;7.724;2023-08-20T12:53:41;8.23;;;6.22;;
39264;SDS011;42646;51.910;7.724;2023-08-20T12:56:10;8.02;;;5.88;;
39264;SDS011;42646;51.910;7.724;2023-08-20T12:58:39;6.90;;;5.70;;
39264;SDS011;42646;51.910;7.724;2023-08-20T13:01:07;7.97;;;6.13;;
39264;SDS011;42646;51.910;7.724;2023-08-20T13:03:36;7.13;;;5.53;;
39264;SDS011;42646;51.910;7.724;2023-08-20T13:06:08;7.63;;;5.65;;
39264;SDS011;42646;51.910;7.724;2023-08-20T13:08:37;7.25;;;5.78;;
39264;SDS011;42646;51.910;7.724;2023-08-20T13:11:05;7.10;;;5.90;;
39264;SDS011;42646;51.910;7.724;2023-08-20T13:13:36;7.28;;;6.03;;
39264;SDS011;42646;51.910;7.724;2023-08-20T13:16:06;7.22;;;5.88;;
39264;SDS011;42646;51.910;7.724;2023-08-20T13:18:35;7.40;;;6.13;;
39264;SDS011;42646;51.910;7.724;2023-08-20T13:21:05;7.68;;;6.45;;
39264;SDS011;42646;51.910;7.724;2023-08-20T13:23:36;7.15;;;5.63;;
39264;SDS011;42646;51.910;7.724;2023-08-20T13:26:05;7.22;;;5.57;;
39264;SDS011;42646;51.910;7.724;2023-08-20T13:28:37;7.03;;;5.38;;
39264;SDS011;42646;51.910;7.724;2023-08-20T13:31:06;8.25;;;5.97;;
39264;SDS011;42646;51.910;7.724;2023-08-20T13:33:34;6.93;;;5.93;;
39264;SDS011;42646;51.910;7.724;2023-08-20T13:36:01;6.78;;;5.50;;
39264;SDS011;42646;51.910;7.724;2023-08-20T13:38:30;6.78;;;5.82;;
39264;SDS011;42646;51.910;7.724;2023-08-20T13:41:03;7.28;;;6.22;;
39264;SDS011;42646;51.910;7.724;2023-08-20T13:43:31;7.00;;;6.20;;
39264;SDS011;42646;51.910;7.724;2023-08-20T13:46:04;6.28;;;5.63;;
39264;SDS011;42646;51.910;7.724;2023-08-20T13:48:32;6.95;;;5.55;;
39264;SDS011;42646;51.910;7.724;2023-08-20T13:50:59;6.30;;;5.47;;
39264;SDS011;42646;51.910;7.724;2023-08-20T13:53:28;6.68;;;5.68;;
39264;SDS011;42646;51.910;7.724;2023-08-20T13:55:56;7.30;;;6.18;;
39264;SDS011;42646;51.910;7.724;2023-08-20T13:58:24;7.32;;;5.78;;
39264;SDS011;42646;51.910;7.724;2023-08-20T14:00:52;6.88;;;5.75;;
39264;SDS011;42646;51.910;7.724;2023-08-20T14:03:25;6.75;;;6.05;;
39264;SDS011;42646;51.910;7.724;2023-08-20T14:05:53;6.70;;;5.53;;
39264;SDS011;42646;51.910;7.724;2023-08-20T14:08:20;7.18;;;5.30;;
39264;SDS011;42646;51.910;7.724;2023-08-20T14:10:50;6.47;;;5.82;;
39264;SDS011;42646;51.910;7.724;2023-08-20T14:13:21;6.18;;;5.43;;
39264;SDS011;42646;51.910;7.724;2023-08-20T14:15:49;6.85;;;6.15;;
39264;SDS011;42646;51.910;7.724;2023-08-20T14:18:17;6.57;;;5.70;;
39264;SDS011;42646;51.910;7.724;2023-08-20T14:20:50;5.97;;;5.40;;
39264;SDS011;42646;51.910;7.724;2023-08-20T14:23:18;5.68;;;5.00;;
39264;SDS011;42646;51.910;7.724;2023-08-20T14:25:46;5.72;;;4.90;;
39264;SDS011;42646;51.910;7.724;2023-08-20T14:28:14;6.00;;;5.20;;
39264;SDS011;42646;51.910;7.724;2023-08-20T14:30:43;5.72;;;4.80;;
39264;SDS011;42646;51.910;7.724;2023-08-20T14:33:10;5.32;;;4.82;;
39264;SDS011;42646;51.910;7.724;2023-08-20T14:35:39;5.70;;;4.40;;
39264;SDS011;42646;51.910;7.724;2023-08-20T14:38:10;5.55;;;4.63;;
39264;SDS011;42646;51.910;7.724;2023-08-20T14:40:39;5.70;;;4.35;;
39264;SDS011;42646;51.910;7.724;2023-08-20T14:43:08;5.07;;;4.25;;
39264;SDS011;42646;51.910;7.724;2023-08-20T14:45:36;4.82;;;4.32;;
39264;SDS011;42646;51.910;7.724;2023-08-20T14:48:05;6.10;;;4.20;;
39264;SDS011;42646;51.910;7.724;2023-08-20T14:50:32;4.30;;;3.75;;
39264;SDS011;42646;51.910;7.724;2023-08-20T14:53:02;5.32;;;3.85;;
39264;SDS011;42646;51.910;7.724;2023-08-20T14:55:31;4.75;;;3.80;;
39264;SDS011;42646;51.910;7.724;2023-08-20T14:57:59;5.65;;;3.95;;
39264;SDS011;42646;51.910;7.724;2023-08-20T15:00:27;5.35;;;4.05;;
39264;SDS011;42646;51.910;7.724;2023-08-20T15:02:55;4.28;;;3.63;;
39264;SDS011;42646;51.910;7.724;2023-08-20T15:05:23;5.20;;;3.20;;
39264;SDS011;42646;51.910;7.724;2023-08-20T15:07:51;5.50;;;3.70;;
39264;SDS011;42646;51.910;7.724;2023-08-20T15:10:48;4.60;;;3.08;;
39264;SDS011;42646;51.910;7.724;2023-08-20T15:13:23;4.05;;;3.00;;
39264;SDS011;42646;51.910;7.724;2023-08-20T15:15:52;5.60;;;3.45;;